Time;durP1;ratioP1;P1;durP2;ratioP2;P2;SDS_P1;SDS_P2;PMS_P1;PMS_P2;Temp;Humidity;BMP_temperature;BMP_pressure;BME280_temperature;BME280_humidity;BME280_pressure;Samples;Min_cycle;Max_cycle;Signal;HPM_P1;HPM_P2
2021/08/23 00:01:12;;;;;;;7.20;6.57;;;19.60;99.90;;;;;;5018904;28;20960;-86
2021/08/23 00:03:38;;;;;;;7.23;6.63;;;19.80;99.90;;;;;;5023991;28;20453;-87
2021/08/23 00:06:05;;;;;;;6.40;5.90;;;19.80;99.90;;;;;;5019119;28;20500;-85
2021/08/23 00:08:32;;;;;;;7.70;7.10;;;19.70;99.90;;;;;;5038829;28;20463;-87
2021/08/23 00:10:59;;;;;;;6.57;5.97;;;19.70;99.90;;;;;;5025429;28;20453;-85
2021/08/23 00:13:45;;;;;;;6.83;6.23;;;19.60;99.90;;;;;;5032206;28;20528;-86
2021/08/23 00:16:16;;;;;;;6.60;6.00;;;19.50;99.90;;;;;;5010581;28;20516;-87
2021/08/23 00:18:44;;;;;;;6.67;6.13;;;19.50;99.90;;;;;;5026245;28;20504;-86
2021/08/23 00:21:12;;;;;;;6.90;6.20;;;19.40;99.90;;;;;;5039354;28;20473;-87
2021/08/23 00:23:49;;;;;;;8.33;7.53;;;19.70;99.90;;;;;;5017649;28;20450;-87
2021/08/23 00:26:20;;;;;;;7.40;6.80;;;19.90;99.90;;;;;;5033502;28;20488;-85
2021/08/23 00:28:47;;;;;;;7.40;6.73;;;20.10;99.90;;;;;;5020209;28;20468;-85
2021/08/23 00:31:15;;;;;;;7.87;6.80;;;20.10;99.90;;;;;;5017423;28;20461;-88
2021/08/23 00:33:42;;;;;;;8.10;7.30;;;19.90;99.90;;;;;;5020016;28;20550;-86
2021/08/23 00:36:08;;;;;;;8.27;7.00;;;19.80;99.90;;;;;;5009056;28;20474;-84
2021/08/23 00:38:35;;;;;;;8.40;7.60;;;19.80;99.90;;;;;;5021502;28;20469;-85
2021/08/23 00:41:05;;;;;;;7.53;6.83;;;19.80;99.90;;;;;;5011469;28;20457;-85
2021/08/23 00:43:32;;;;;;;6.77;6.10;;;19.70;99.90;;;;;;5034405;28;20943;-86
2021/08/23 00:46:03;;;;;;;8.23;7.47;;;19.50;99.90;;;;;;5020605;28;20516;-85
2021/08/23 00:48:34;;;;;;;8.00;7.33;;;19.60;99.90;;;;;;5016584;28;20462;-84
2021/08/23 00:51:02;;;;;;;7.90;7.20;;;19.80;99.90;;;;;;5024040;28;20448;-87
2021/08/23 00:53:29;;;;;;;8.23;7.43;;;19.80;99.90;;;;;;5051716;28;20483;-87
2021/08/23 00:55:56;;;;;;;8.83;8.00;;;19.80;99.90;;;;;;5055783;28;20449;-85
2021/08/23 00:58:25;;;;;;;8.47;7.67;;;19.70;99.90;;;;;;5029931;28;20549;-83
2021/08/23 01:01:03;;;;;;;8.17;7.40;;;19.60;99.90;;;;;;5035864;28;20475;-83
2021/08/23 01:03:41;;;;;;;8.13;7.43;;;19.40;99.90;;;;;;5037769;28;20468;-82
2021/08/23 01:06:09;;;;;;;8.50;7.40;;;19.20;99.90;;;;;;5030711;28;20474;-83
2021/08/23 01:08:40;;;;;;;9.03;7.10;;;19.20;99.90;;;;;;5045728;28;20939;-84
2021/08/23 01:11:10;;;;;;;7.97;7.27;;;19.30;99.90;;;;;;5045658;28;20442;-86
2021/08/23 01:13:47;;;;;;;8.70;6.97;;;19.50;99.90;;;;;;5057449;28;20433;-85
2021/08/23 01:16:15;;;;;;;9.97;7.80;;;19.60;99.90;;;;;;5039936;28;20477;-85
2021/08/23 01:18:44;;;;;;;8.83;8.00;;;19.50;99.90;;;;;;5010758;28;20484;-83
2021/08/23 01:21:21;;;;;;;9.23;7.03;;;19.40;99.90;;;;;;5015491;28;20446;-82
2021/08/23 01:23:48;;;;;;;9.13;6.63;;;19.20;99.90;;;;;;5037459;28;20902;-83
2021/08/23 01:26:23;;;;;;;7.60;6.83;;;19.10;99.90;;;;;;5034082;28;20815;-84
2021/08/23 01:28:59;;;;;;;8.03;7.07;;;19.00;99.90;;;;;;5035893;28;20465;-83
2021/08/23 01:31:35;;;;;;;9.10;7.93;;;18.90;99.90;;;;;;5035420;28;20508;-84
2021/08/23 01:34:03;;;;;;;8.10;7.30;;;19.20;99.90;;;;;;5038759;28;20811;-84
2021/08/23 01:36:30;;;;;;;8.43;7.53;;;19.40;99.90;;;;;;5042518;28;20594;-84
2021/08/23 01:38:58;;;;;;;8.70;8.00;;;19.30;99.90;;;;;;5023209;28;20544;-83
2021/08/23 01:41:25;;;;;;;7.97;7.27;;;19.20;99.90;;;;;;5035963;28;20444;-83
2021/08/23 01:43:52;;;;;;;8.37;7.50;;;19.00;99.90;;;;;;5025160;28;20791;-83
2021/08/23 01:46:19;;;;;;;7.60;6.87;;;18.90;99.90;;;;;;5038120;28;20531;-83
2021/08/23 01:48:47;;;;;;;7.03;6.43;;;18.90;99.90;;;;;;5042872;28;20468;-84
2021/08/23 01:51:15;;;;;;;7.57;6.90;;;18.80;99.90;;;;;;5035353;28;20450;-83
2021/08/23 01:53:41;;;;;;;9.80;7.93;;;19.00;99.90;;;;;;5029035;28;20449;-86
2021/08/23 01:56:08;;;;;;;9.63;7.70;;;19.30;99.90;;;;;;5038839;28;20469;-84
2021/08/23 01:58:35;;;;;;;8.50;7.70;;;19.30;99.90;;;;;;5019942;28;20491;-84
2021/08/23 02:01:01;;;;;;;9.83;8.83;;;19.20;99.90;;;;;;5031512;28;20465;-84
2021/08/23 02:03:28;;;;;;;9.40;8.43;;;19.20;99.90;;;;;;5021276;28;20461;-82
2021/08/23 02:05:55;;;;;;;9.77;8.77;;;19.30;99.90;;;;;;5037954;28;20469;-85
2021/08/23 02:08:22;;;;;;;9.00;8.20;;;19.30;99.90;;;;;;5037384;28;20855;-83
2021/08/23 02:10:48;;;;;;;10.63;8.83;;;19.20;99.90;;;;;;5033273;28;20460;-84
2021/08/23 02:13:15;;;;;;;10.37;9.40;;;19.20;99.90;;;;;;5013085;28;20461;-86
2021/08/23 02:15:42;;;;;;;9.87;8.97;;;19.20;99.90;;;;;;5040423;28;21203;-84
2021/08/23 02:18:09;;;;;;;10.37;9.27;;;19.00;99.90;;;;;;5040802;28;20475;-84
2021/08/23 02:20:35;;;;;;;10.17;9.27;;;18.80;99.90;;;;;;5014039;28;20592;-85
2021/08/23 02:23:02;;;;;;;10.17;9.27;;;18.80;99.90;;;;;;5041942;28;20426;-85
2021/08/23 02:25:29;;;;;;;10.40;9.40;;;18.80;99.90;;;;;;5041967;28;20460;-84
2021/08/23 02:27:56;;;;;;;11.07;9.80;;;18.90;99.90;;;;;;5041198;28;20476;-85
2021/08/23 02:30:23;;;;;;;10.60;9.70;;;18.80;99.90;;;;;;5039814;28;20476;-85
2021/08/23 02:32:50;;;;;;;10.27;9.30;;;18.70;99.90;;;;;;5018021;28;20469;-85
2021/08/23 02:35:18;;;;;;;9.87;8.97;;;18.60;99.90;;;;;;5014890;28;20466;-84
2021/08/23 02:37:45;;;;;;;10.23;9.33;;;18.60;99.90;;;;;;5030301;28;20488;-84
2021/08/23 02:40:12;;;;;;;9.80;8.90;;;18.60;99.90;;;;;;5040527;28;20441;-85
2021/08/23 02:42:39;;;;;;;9.83;9.03;;;18.60;99.90;;;;;;5029241;28;20488;-84
2021/08/23 02:45:07;;;;;;;8.83;8.07;;;18.60;99.90;;;;;;5039278;28;20568;-84
2021/08/23 02:47:36;;;;;;;9.00;8.20;;;18.60;99.90;;;;;;5024821;28;20446;-81
2021/08/23 02:50:08;;;;;;;8.77;7.90;;;18.60;99.90;;;;;;5028585;28;20446;-83
2021/08/23 02:52:36;;;;;;;9.13;8.33;;;18.60;99.90;;;;;;5030259;28;20462;-82
2021/08/23 02:55:04;;;;;;;8.90;8.10;;;18.60;99.90;;;;;;5032065;28;20472;-83
2021/08/23 02:57:31;;;;;;;8.93;7.47;;;18.60;99.90;;;;;;5021644;28;20918;-84
2021/08/23 02:59:58;;;;;;;8.83;8.00;;;18.60;99.90;;;;;;5038299;28;20449;-82
2021/08/23 03:02:25;;;;;;;9.70;8.87;;;18.70;99.90;;;;;;5025471;28;20481;-84
2021/08/23 03:04:52;;;;;;;9.07;8.17;;;18.70;99.90;;;;;;5027278;28;20824;-85
2021/08/23 03:07:18;;;;;;;9.27;8.37;;;18.80;99.90;;;;;;5045470;28;20438;-84
2021/08/23 03:09:45;;;;;;;8.50;7.90;;;18.80;99.90;;;;;;5043177;28;20820;-84
2021/08/23 03:12:12;;;;;;;8.73;7.83;;;18.80;99.90;;;;;;5033238;28;20466;-84
2021/08/23 03:14:38;;;;;;;8.70;7.97;;;18.80;99.90;;;;;;5048544;28;20449;-85
2021/08/23 03:17:05;;;;;;;8.90;8.20;;;18.90;99.90;;;;;;5052303;28;20508;-86
2021/08/23 03:19:32;;;;;;;9.47;8.13;;;18.90;99.90;;;;;;5015992;28;20557;-84
2021/08/23 03:21:59;;;;;;;8.73;7.93;;;18.90;99.90;;;;;;5039312;28;20445;-84
2021/08/23 03:24:25;;;;;;;10.17;9.27;;;18.80;99.90;;;;;;5027717;28;20808;-84
2021/08/23 03:26:53;;;;;;;9.87;9.03;;;18.80;99.90;;;;;;5031450;28;20528;-84
2021/08/23 03:29:20;;;;;;;9.00;8.23;;;18.90;99.90;;;;;;5030305;28;20470;-85
2021/08/23 03:31:46;;;;;;;10.33;9.43;;;18.90;99.90;;;;;;5047157;28;20463;-86
2021/08/23 03:34:13;;;;;;;10.63;9.73;;;19.10;99.90;;;;;;5053276;28;20480;-84
2021/08/23 03:36:43;;;;;;;10.27;9.33;;;19.10;99.90;;;;;;5027982;28;20513;-85
2021/08/23 03:39:10;;;;;;;9.70;9.00;;;18.90;99.90;;;;;;5035074;28;20485;-85
2021/08/23 03:41:37;;;;;;;9.60;8.70;;;18.80;99.90;;;;;;5056814;28;20513;-84
2021/08/23 03:44:04;;;;;;;10.63;9.53;;;18.90;99.90;;;;;;5039768;28;20433;-86
2021/08/23 03:46:32;;;;;;;11.27;10.27;;;19.10;99.90;;;;;;5041270;28;20509;-86
2021/08/23 03:49:00;;;;;;;11.10;10.10;;;19.10;99.90;;;;;;5035973;28;20426;-87
2021/08/23 03:51:28;;;;;;;10.00;9.00;;;19.00;99.90;;;;;;5045929;28;20469;-86
2021/08/23 03:53:55;;;;;;;9.63;8.83;;;18.80;99.90;;;;;;5043071;28;20533;-86
2021/08/23 03:56:23;;;;;;;8.90;8.10;;;18.70;99.90;;;;;;5055006;28;20495;-87
2021/08/23 03:58:50;;;;;;;8.13;7.43;;;18.50;99.90;;;;;;5036898;28;20464;-86
2021/08/23 04:01:17;;;;;;;8.17;7.43;;;18.50;99.90;;;;;;5049625;28;20444;-85
2021/08/23 04:03:44;;;;;;;9.30;8.40;;;18.90;99.90;;;;;;5033555;28;20449;-84
2021/08/23 04:06:14;;;;;;;8.77;7.63;;;18.80;99.90;;;;;;5043971;28;20462;-82
2021/08/23 04:08:41;;;;;;;8.93;8.13;;;18.70;99.90;;;;;;5008394;28;20458;-83
2021/08/23 04:11:12;;;;;;;9.13;8.33;;;18.80;99.90;;;;;;5020689;28;20576;-84
2021/08/23 04:13:39;;;;;;;10.23;9.40;;;18.60;99.90;;;;;;5044426;28;20437;-85
2021/08/23 04:16:15;;;;;;;10.40;9.50;;;18.60;99.90;;;;;;5043563;28;20853;-84
2021/08/23 04:18:42;;;;;;;10.24;9.34;;;18.50;99.90;;;;;;4331592;28;10022503;-85
2021/08/23 04:21:09;;;;;;;9.83;8.90;;;18.60;99.90;;;;;;5028646;28;20202;-82
2021/08/23 04:23:36;;;;;;;11.30;10.30;;;18.60;99.90;;;;;;5043755;28;20437;-84
2021/08/23 04:26:03;;;;;;;10.17;9.20;;;18.70;99.90;;;;;;5043496;28;20836;-84
2021/08/23 04:28:33;;;;;;;11.30;10.30;;;18.60;99.90;;;;;;5025431;28;20445;-83
2021/08/23 04:31:00;;;;;;;11.40;10.20;;;18.70;99.90;;;;;;5041504;28;20516;-84
2021/08/23 04:33:27;;;;;;;11.20;10.00;;;18.50;99.90;;;;;;5033217;28;20491;-83
2021/08/23 04:35:54;;;;;;;10.73;9.63;;;18.40;99.90;;;;;;5039992;28;20554;-84
2021/08/23 04:38:21;;;;;;;12.47;10.60;;;18.50;99.90;;;;;;5015560;28;20481;-84
2021/08/23 04:40:47;;;;;;;12.70;9.90;;;18.40;99.90;;;;;;5035876;28;20454;-82
2021/08/23 04:43:14;;;;;;;11.53;10.43;;;18.40;99.90;;;;;;5024784;28;20509;-84
2021/08/23 04:45:41;;;;;;;10.97;10.03;;;18.40;99.90;;;;;;5050543;28;20473;-83
2021/08/23 04:48:08;;;;;;;9.60;8.70;;;18.40;99.90;;;;;;5034277;28;20510;-82
2021/08/23 04:50:35;;;;;;;10.17;9.27;;;18.50;99.90;;;;;;5029364;28;20484;-82
2021/08/23 04:53:01;;;;;;;12.43;11.27;;;18.60;99.90;;;;;;5044926;28;20460;-83
2021/08/23 04:55:28;;;;;;;14.10;11.73;;;18.80;99.90;;;;;;5026302;28;20464;-83
2021/08/23 04:57:55;;;;;;;13.60;12.20;;;19.10;99.90;;;;;;5020670;28;20471;-84
2021/08/23 05:00:22;;;;;;;12.83;11.33;;;19.20;99.90;;;;;;5010238;28;20437;-84
2021/08/23 05:02:49;;;;;;;12.60;11.40;;;19.00;99.90;;;;;;5037678;28;20452;-84
2021/08/23 05:05:16;;;;;;;13.63;12.33;;;19.10;99.90;;;;;;5022313;28;20477;-84
2021/08/23 05:07:43;;;;;;;15.43;12.07;;;18.90;99.90;;;;;;5008316;28;20585;-85
2021/08/23 05:10:09;;;;;;;13.40;11.17;;;18.90;99.90;;;;;;5010484;28;20591;-84
2021/08/23 05:12:36;;;;;;;13.03;11.70;;;18.80;99.90;;;;;;5001692;28;20454;-83
2021/08/23 05:15:03;;;;;;;13.60;12.30;;;18.90;99.90;;;;;;5018926;28;20470;-84
2021/08/23 05:17:30;;;;;;;12.57;11.40;;;18.80;99.90;;;;;;5033707;28;20549;-83
2021/08/23 05:19:58;;;;;;;11.80;10.80;;;18.70;99.90;;;;;;5037053;28;20973;-82
2021/08/23 05:22:26;;;;;;;12.17;10.90;;;18.70;99.90;;;;;;5034510;28;20528;-83
2021/08/23 05:24:52;;;;;;;11.80;10.60;;;18.70;99.90;;;;;;5036648;28;20469;-84
2021/08/23 05:27:19;;;;;;;11.57;10.47;;;18.80;99.90;;;;;;5032449;28;20548;-83
2021/08/23 05:29:46;;;;;;;12.17;10.87;;;18.80;99.90;;;;;;5030972;28;20838;-83
2021/08/23 05:32:16;;;;;;;13.77;11.03;;;18.90;99.90;;;;;;5017695;28;20457;-83
2021/08/23 05:34:45;;;;;;;11.47;10.10;;;18.90;99.90;;;;;;5017574;28;20884;-84
2021/08/23 05:37:12;;;;;;;12.10;10.90;;;18.90;99.90;;;;;;5015045;28;20449;-84
2021/08/23 05:39:39;;;;;;;13.33;11.93;;;18.90;99.90;;;;;;5040852;28;20489;-84
2021/08/23 05:42:06;;;;;;;12.60;11.40;;;19.00;99.90;;;;;;5042302;28;20448;-84
2021/08/23 05:44:33;;;;;;;12.37;11.13;;;19.10;99.90;;;;;;5024482;28;20476;-85
2021/08/23 05:46:59;;;;;;;20.80;18.80;;;19.00;99.90;;;;;;5044147;28;20475;-82
2021/08/23 05:49:28;;;;;;;13.63;11.40;;;19.30;99.90;;;;;;5056960;28;20520;-85
2021/08/23 05:51:55;;;;;;;12.53;11.33;;;19.40;99.90;;;;;;5056763;28;20477;-84
2021/08/23 05:54:25;;;;;;;15.00;11.73;;;19.50;99.90;;;;;;5035776;28;20465;-82
2021/08/23 05:56:53;;;;;;;12.63;11.43;;;19.80;99.90;;;;;;5042511;28;20473;-86
2021/08/23 05:59:20;;;;;;;12.70;11.37;;;19.90;99.90;;;;;;5043147;28;20527;-84
2021/08/23 06:01:55;;;;;;;13.97;12.57;;;19.90;99.90;;;;;;5044677;28;20453;-85
2021/08/23 06:04:23;;;;;;;13.10;11.90;;;19.90;99.90;;;;;;5037109;28;20541;-84
2021/08/23 06:06:50;;;;;;;14.57;13.07;;;20.10;99.90;;;;;;5023353;28;20565;-86
2021/08/23 06:09:19;;;;;;;14.10;11.80;;;20.00;99.90;;;;;;5039949;28;20449;-84
2021/08/23 06:11:49;;;;;;;13.10;11.97;;;19.80;99.90;;;;;;5027362;28;20452;-85
2021/08/23 06:14:16;;;;;;;13.23;12.03;;;19.60;99.90;;;;;;5021859;28;20514;-84
2021/08/23 06:16:43;;;;;;;14.03;12.00;;;19.60;99.90;;;;;;5035468;28;20464;-83
2021/08/23 06:19:10;;;;;;;14.50;13.07;;;19.50;99.90;;;;;;5035861;28;20489;-83
2021/08/23 06:21:36;;;;;;;16.03;14.30;;;19.90;99.90;;;;;;5032356;28;20438;-83
2021/08/23 06:24:04;;;;;;;14.40;13.07;;;20.00;99.90;;;;;;5044963;28;20456;-84
2021/08/23 06:26:30;;;;;;;13.13;11.97;;;19.90;99.90;;;;;;5049273;28;20477;-84
2021/08/23 06:28:57;;;;;;;13.40;12.10;;;19.70;99.90;;;;;;5047693;28;20524;-82
2021/08/23 06:31:24;;;;;;;12.70;11.40;;;19.60;99.90;;;;;;5050552;28;20882;-83
2021/08/23 06:33:51;;;;;;;13.00;11.73;;;19.60;99.90;;;;;;5028688;28;20507;-84
2021/08/23 06:36:18;;;;;;;11.80;10.80;;;19.60;99.90;;;;;;5047606;28;20468;-83
2021/08/23 06:38:45;;;;;;;11.97;10.80;;;19.70;99.90;;;;;;5043952;28;20523;-85
2021/08/23 06:41:20;;;;;;;12.33;11.10;;;19.80;99.90;;;;;;5025331;28;20449;-86
2021/08/23 06:43:47;;;;;;;11.63;10.53;;;19.90;99.90;;;;;;5042139;28;20487;-85
2021/08/23 06:46:15;;;;;;;12.03;10.83;;;20.20;99.90;;;;;;5040401;28;20469;-86
2021/08/23 06:48:42;;;;;;;13.60;11.17;;;20.60;99.90;;;;;;5044377;28;20445;-84
2021/08/23 06:51:09;;;;;;;11.27;10.30;;;20.50;99.90;;;;;;5027700;28;20437;-83
2021/08/23 06:53:38;;;;;;;12.30;11.20;;;20.60;99.90;;;;;;5047713;28;20517;-82
2021/08/23 06:56:04;;;;;;;15.30;13.90;;;20.70;99.90;;;;;;5043522;28;20469;-83
2021/08/23 06:58:31;;;;;;;11.83;10.60;;;20.60;99.90;;;;;;5026236;28;20453;-84
2021/08/23 07:00:58;;;;;;;11.77;10.77;;;20.50;99.90;;;;;;5039596;28;20448;-84
2021/08/23 07:03:25;;;;;;;13.40;12.17;;;20.50;99.90;;;;;;5024565;28;20449;-85
2021/08/23 07:05:51;;;;;;;12.40;11.30;;;20.40;99.90;;;;;;5027771;28;20474;-83
2021/08/23 07:08:33;;;;;;;12.20;10.90;;;20.30;99.90;;;;;;5024852;28;20445;-85
2021/08/23 07:11:01;;;;;;;13.30;12.07;;;20.10;99.90;;;;;;5026672;28;20448;-83
2021/08/23 07:13:29;;;;;;;12.57;11.40;;;20.10;99.90;;;;;;5041188;28;20464;-83
2021/08/23 07:15:57;;;;;;;13.70;12.30;;;20.10;99.90;;;;;;5039828;28;20477;-85
2021/08/23 07:18:24;;;;;;;14.27;12.27;;;20.10;99.90;;;;;;5030004;28;20493;-84
2021/08/23 07:20:53;;;;;;;13.87;12.60;;;20.00;99.90;;;;;;5027343;28;21014;-83
2021/08/23 07:23:20;;;;;;;11.30;10.23;;;20.00;99.90;;;;;;5047040;28;20655;-85
2021/08/23 07:25:47;;;;;;;14.13;12.77;;;20.00;99.90;;;;;;5034478;28;20485;-86
2021/08/23 07:28:14;;;;;;;15.93;14.37;;;20.40;99.90;;;;;;5036952;28;20465;-84
2021/08/23 07:30:41;;;;;;;14.63;13.30;;;20.50;99.90;;;;;;5032625;28;20529;-82
2021/08/23 07:33:08;;;;;;;15.43;14.00;;;20.20;99.90;;;;;;5050222;28;20436;-85
2021/08/23 07:35:35;;;;;;;15.87;14.47;;;20.00;99.90;;;;;;5036228;28;20477;-84
2021/08/23 07:38:04;;;;;;;15.77;14.17;;;19.90;99.90;;;;;;5041184;28;20513;-85
2021/08/23 07:40:31;;;;;;;17.73;15.77;;;19.90;99.90;;;;;;5047802;28;20462;-83
2021/08/23 07:42:58;;;;;;;15.73;14.17;;;19.90;99.90;;;;;;5032383;28;20455;-84
2021/08/23 07:45:25;;;;;;;16.70;15.00;;;19.90;99.90;;;;;;5022460;28;20485;-85
2021/08/23 07:47:54;;;;;;;18.80;15.90;;;19.90;99.90;;;;;;5022870;28;20483;-84
2021/08/23 07:50:21;;;;;;;18.00;16.20;;;20.30;99.90;;;;;;5035214;28;20461;-84
2021/08/23 07:52:48;;;;;;;17.40;15.60;;;21.00;99.90;;;;;;5040327;28;20452;-85
2021/08/23 07:55:15;;;;;;;14.87;13.47;;;20.70;99.90;;;;;;5031892;28;20485;-84
2021/08/23 07:57:44;;;;;;;13.43;12.27;;;20.40;99.90;;;;;;5037717;28;20528;-86
2021/08/23 08:00:12;;;;;;;16.33;14.70;;;20.30;99.90;;;;;;5032069;28;20553;-84
2021/08/23 08:02:40;;;;;;;14.77;13.37;;;20.20;99.90;;;;;;5017465;28;20434;-85
2021/08/23 08:05:08;;;;;;;15.80;14.10;;;20.20;99.90;;;;;;5034997;28;20921;-84
2021/08/23 08:07:35;;;;;;;15.80;14.20;;;20.30;99.90;;;;;;5019685;28;20943;-85
2021/08/23 08:10:02;;;;;;;17.07;15.27;;;20.50;99.90;;;;;;5020336;28;20528;-85
2021/08/23 08:12:29;;;;;;;16.40;14.80;;;20.90;99.90;;;;;;5010429;28;20461;-83
2021/08/23 08:14:56;;;;;;;17.57;14.97;;;21.00;99.90;;;;;;5035949;28;20474;-84
2021/08/23 08:17:24;;;;;;;18.43;16.23;;;21.20;99.90;;;;;;5038336;28;20438;-85
2021/08/23 08:19:50;;;;;;;19.63;16.93;;;20.80;99.90;;;;;;5020418;28;20486;-83
2021/08/23 08:22:17;;;;;;;16.47;14.70;;;20.60;99.90;;;;;;5030210;28;20505;-84
2021/08/23 08:24:44;;;;;;;18.83;14.40;;;20.50;99.90;;;;;;5011486;28;20936;-84
2021/08/23 08:27:11;;;;;;;16.63;14.83;;;20.30;99.90;;;;;;5032756;28;20641;-84
2021/08/23 08:29:38;;;;;;;16.20;14.60;;;20.20;99.90;;;;;;5020320;28;20827;-84
2021/08/23 08:32:06;;;;;;;16.03;14.53;;;20.30;99.90;;;;;;5035089;28;20433;-84
2021/08/23 08:34:33;;;;;;;15.47;13.87;;;20.40;99.90;;;;;;5022617;28;20456;-82
2021/08/23 08:37:01;;;;;;;15.47;13.97;;;20.60;99.90;;;;;;5043859;28;20418;-84
2021/08/23 08:39:28;;;;;;;15.60;14.03;;;20.70;99.90;;;;;;5053849;28;20484;-85
2021/08/23 08:41:54;;;;;;;15.53;13.93;;;21.10;99.90;;;;;;5034461;28;20806;-84
2021/08/23 08:44:21;;;;;;;14.90;13.40;;;21.10;99.90;;;;;;5024116;28;20467;-83
2021/08/23 08:46:49;;;;;;;15.67;14.07;;;21.00;99.90;;;;;;5012906;28;21108;-83
2021/08/23 08:49:18;;;;;;;16.90;15.10;;;21.00;99.90;;;;;;5032574;28;20459;-81
2021/08/23 08:51:46;;;;;;;16.10;14.57;;;21.30;99.90;;;;;;5010084;28;20948;-82
2021/08/23 08:54:13;;;;;;;15.83;14.17;;;21.50;99.90;;;;;;5031389;28;20544;-81
2021/08/23 08:56:40;;;;;;;15.17;13.63;;;21.50;99.90;;;;;;5034550;28;20477;-81
2021/08/23 08:59:06;;;;;;;16.17;14.67;;;21.30;99.90;;;;;;5031389;28;20445;-85
2021/08/23 09:01:33;;;;;;;15.73;14.20;;;21.10;99.90;;;;;;5028798;28;20482;-82
2021/08/23 09:04:02;;;;;;;15.67;14.17;;;20.90;99.90;;;;;;5031603;28;20450;-84
2021/08/23 09:06:42;;;;;;;15.50;13.93;;;20.80;99.90;;;;;;5007700;28;20509;-83
2021/08/23 09:09:13;;;;;;;16.00;14.37;;;20.80;99.90;;;;;;5032153;28;20469;-83
2021/08/23 09:11:41;;;;;;;16.57;14.87;;;21.00;99.90;;;;;;5036078;28;20925;-83
2021/08/23 09:14:09;;;;;;;15.27;13.67;;;21.00;99.90;;;;;;5020528;28;20839;-83
2021/08/23 09:16:43;;;;;;;15.33;13.80;;;20.90;99.90;;;;;;5039458;28;20473;-83
2021/08/23 09:19:22;;;;;;;17.30;15.60;;;21.10;99.90;;;;;;5037978;28;20453;-85
2021/08/23 09:21:57;;;;;;;15.83;14.40;;;21.50;99.90;;;;;;5035643;28;20477;-84
2021/08/23 09:24:25;;;;;;;15.70;13.00;;;21.50;99.90;;;;;;5037027;28;20587;-83
2021/08/23 09:27:01;;;;;;;18.43;13.57;;;21.60;99.90;;;;;;5037059;28;20939;-84
2021/08/23 09:29:28;;;;;;;13.63;11.03;;;21.40;99.90;;;;;;5039397;28;20452;-85
2021/08/23 09:31:59;;;;;;;11.00;10.00;;;21.20;99.90;;;;;;5021354;28;20499;-84
2021/08/23 09:34:26;;;;;;;10.03;9.13;;;21.00;99.90;;;;;;5033068;28;20847;-85
2021/08/23 09:37:00;;;;;;;9.90;8.90;;;21.00;99.90;;;;;;5035485;28;20469;-84
2021/08/23 09:39:29;;;;;;;10.53;9.03;;;21.10;99.90;;;;;;5016771;28;20469;-85
2021/08/23 09:42:06;;;;;;;10.60;9.57;;;21.20;99.90;;;;;;5024487;28;20476;-84
2021/08/23 09:44:38;;;;;;;11.50;10.40;;;21.30;99.90;;;;;;5031755;28;20477;-84
2021/08/23 09:47:05;;;;;;;12.47;11.17;;;21.30;99.90;;;;;;5028767;28;20461;-85
2021/08/23 09:49:41;;;;;;;12.03;10.87;;;21.60;99.90;;;;;;5032219;28;20449;-84
2021/08/23 09:52:22;;;;;;;15.03;12.00;;;21.60;99.90;;;;;;5035916;28;20491;-85
2021/08/23 09:55:08;;;;;;;11.80;10.60;;;21.60;99.90;;;;;;5021869;28;20487;-83
2021/08/23 09:57:38;;;;;;;13.47;11.97;;;21.40;99.90;;;;;;5022411;28;20503;-85
2021/08/23 10:00:12;;;;;;;11.67;10.47;;;21.50;99.90;;;;;;5020806;28;20469;-85
2021/08/23 10:02:48;;;;;;;14.30;11.77;;;21.60;99.90;;;;;;5036335;28;20981;-82
2021/08/23 10:05:18;;;;;;;12.70;11.43;;;21.50;99.90;;;;;;5027241;28;20497;-83
2021/08/23 10:07:47;;;;;;;13.53;10.93;;;21.90;99.90;;;;;;5038036;28;20485;-83
2021/08/23 10:10:14;;;;;;;11.67;10.67;;;22.00;99.90;;;;;;5030934;28;20455;-82
2021/08/23 10:12:41;;;;;;;12.03;10.93;;;21.70;99.90;;;;;;5038703;28;20918;-83
2021/08/23 10:15:08;;;;;;;13.83;12.43;;;21.60;99.90;;;;;;5026300;28;20803;-83
2021/08/23 10:17:37;;;;;;;11.80;10.80;;;21.50;99.90;;;;;;5006178;28;20462;-83
2021/08/23 10:20:07;;;;;;;13.50;12.20;;;21.30;99.90;;;;;;5019170;28;20477;-84
2021/08/23 10:22:36;;;;;;;14.93;13.47;;;21.40;99.90;;;;;;5036835;28;20450;-83
2021/08/23 10:25:04;;;;;;;13.87;12.53;;;21.70;99.90;;;;;;5022796;28;20477;-85
2021/08/23 10:27:39;;;;;;;15.90;14.30;;;22.50;99.90;;;;;;5020778;28;20449;-81
2021/08/23 10:30:08;;;;;;;14.80;13.43;;;23.80;99.90;;;;;;5023230;28;20455;-85
2021/08/23 10:32:39;;;;;;;15.70;13.20;;;24.50;99.10;;;;;;5024699;28;20434;-83
2021/08/23 10:35:23;;;;;;;12.97;11.67;;;25.90;95.90;;;;;;5037662;28;20479;-84
2021/08/23 10:37:51;;;;;;;13.67;12.40;;;26.10;94.40;;;;;;5039327;28;20472;-85
2021/08/23 10:40:24;;;;;;;11.90;10.90;;;25.90;93.90;;;;;;5044562;28;20975;-84
2021/08/23 10:42:51;;;;;;;12.60;11.40;;;25.60;93.90;;;;;;5026380;28;20476;-84
2021/08/23 10:45:19;;;;;;;12.67;11.37;;;25.10;93.90;;;;;;5041763;28;20986;-84
2021/08/23 10:47:47;;;;;;;13.40;12.20;;;24.50;95.50;;;;;;5023546;28;20457;-84
2021/08/23 10:50:25;;;;;;;14.50;13.20;;;24.20;95.70;;;;;;5047243;28;20418;-87
2021/08/23 10:52:53;;;;;;;12.80;11.67;;;24.40;95.10;;;;;;5037967;28;20441;-83
2021/08/23 10:55:32;;;;;;;13.13;12.03;;;24.50;94.50;;;;;;5021189;28;20444;-83
2021/08/23 10:58:07;;;;;;;14.83;13.57;;;24.30;94.70;;;;;;5032595;28;20442;-81
2021/08/23 11:00:40;;;;;;;13.70;12.50;;;24.10;95.00;;;;;;5024251;28;20469;-84
2021/08/23 11:03:08;;;;;;;13.70;10.83;;;23.90;95.70;;;;;;5022287;28;20434;-80
2021/08/23 11:05:37;;;;;;;11.80;10.60;;;23.80;96.20;;;;;;5019670;28;20553;-83
2021/08/23 11:08:10;;;;;;;12.03;11.03;;;23.70;96.10;;;;;;5034467;28;20947;-84
2021/08/23 11:10:40;;;;;;;12.70;11.60;;;23.30;96.60;;;;;;5029960;28;20444;-82
2021/08/23 11:13:17;;;;;;;11.80;10.33;;;23.30;96.70;;;;;;5037781;28;20503;-82
2021/08/23 11:15:45;;;;;;;11.37;10.43;;;22.90;97.00;;;;;;5021042;28;20469;-81
2021/08/23 11:18:15;;;;;;;12.37;11.20;;;22.80;96.90;;;;;;5027499;28;20441;-84
2021/08/23 11:20:48;;;;;;;11.43;10.40;;;23.00;97.20;;;;;;5033310;28;20462;-84
2021/08/23 11:23:24;;;;;;;10.30;9.50;;;23.70;96.20;;;;;;5051515;28;20439;-82
2021/08/23 11:25:54;;;;;;;11.33;10.23;;;23.80;95.00;;;;;;5045949;28;20476;-85
2021/08/23 11:28:26;;;;;;;10.77;9.77;;;23.70;95.00;;;;;;5029385;28;20462;-82
2021/08/23 11:30:59;;;;;;;11.43;10.43;;;23.50;95.70;;;;;;5038219;28;20528;-82
2021/08/23 11:33:32;;;;;;;11.83;10.73;;;23.40;95.80;;;;;;5047571;28;20552;-82
2021/08/23 11:36:01;;;;;;;11.70;10.70;;;23.60;95.80;;;;;;5031141;28;20473;-83
2021/08/23 11:38:33;;;;;;;11.93;10.90;;;23.70;95.30;;;;;;5034660;28;20445;-82
2021/08/23 11:41:03;;;;;;;12.47;11.17;;;23.90;95.00;;;;;;5028011;28;20476;-80
2021/08/23 11:43:32;;;;;;;13.23;12.03;;;23.30;95.50;;;;;;5031758;28;20433;-82
2021/08/23 11:46:00;;;;;;;11.87;10.87;;;22.90;96.60;;;;;;5030365;28;20458;-83
2021/08/23 11:48:27;;;;;;;10.53;9.63;;;22.90;96.90;;;;;;5035192;28;20499;-82
2021/08/23 11:50:54;;;;;;;11.60;10.60;;;22.90;96.60;;;;;;5031281;28;20458;-83
2021/08/23 11:53:27;;;;;;;9.80;9.00;;;22.90;96.70;;;;;;5017397;28;20450;-82
2021/08/23 11:56:07;;;;;;;9.33;8.53;;;23.50;96.50;;;;;;5035097;28;21260;-82
2021/08/23 11:58:38;;;;;;;9.67;8.90;;;23.90;95.50;;;;;;5033671;28;20453;-84
2021/08/23 12:01:07;;;;;;;10.40;9.60;;;23.80;94.80;;;;;;5030936;28;20486;-84
2021/08/23 12:03:37;;;;;;;10.60;9.70;;;23.80;94.70;;;;;;5035522;28;20793;-83
2021/08/23 12:06:09;;;;;;;11.57;10.57;;;23.70;95.10;;;;;;5036325;28;20460;-82
2021/08/23 12:08:40;;;;;;;11.97;10.83;;;23.90;94.60;;;;;;5043309;28;20446;-84
2021/08/23 12:11:17;;;;;;;11.97;10.97;;;24.10;94.40;;;;;;5032477;28;20508;-84
2021/08/23 12:13:49;;;;;;;11.53;10.53;;;24.20;94.00;;;;;;5018536;28;20539;-84
2021/08/23 12:16:34;;;;;;;12.70;11.53;;;23.90;94.10;;;;;;5034412;28;20465;-83
2021/08/23 12:19:09;;;;;;;11.47;10.53;;;23.80;94.50;;;;;;5038939;28;20457;-83
2021/08/23 12:21:37;;;;;;;10.90;9.90;;;23.80;94.40;;;;;;5037578;28;20460;-85
2021/08/23 12:24:21;;;;;;;10.03;9.23;;;23.80;94.30;;;;;;5036799;28;20451;-84
2021/08/23 12:26:57;;;;;;;10.40;9.63;;;23.70;94.60;;;;;;5021255;28;20446;-83
2021/08/23 12:29:29;;;;;;;11.33;10.43;;;23.70;94.20;;;;;;5035615;28;20455;-81
2021/08/23 12:31:57;;;;;;;12.30;11.27;;;23.60;94.60;;;;;;5039914;28;20449;-83
2021/08/23 12:34:25;;;;;;;11.30;10.30;;;23.60;94.90;;;;;;5019148;28;20444;-82
2021/08/23 12:36:52;;;;;;;14.20;10.80;;;23.50;95.40;;;;;;5034258;28;20441;-84
2021/08/23 12:39:19;;;;;;;12.10;11.10;;;23.60;95.20;;;;;;5029543;28;20433;-83
2021/08/23 12:41:48;;;;;;;11.73;10.53;;;23.50;95.50;;;;;;5030057;28;20477;-83